Rechercher aéroport 
image banner adimage banner adimage banner ad
image banner ad

8PA2 - Ronca

Situé à Bethlehem, United States

ICAO - 8PA2, IATA -

Données fournies par Airmate  

Information générale

Coordonnées: N40°41'3" W75°20'3"
Élévation : 375 feet MSL.
Variation magnétique : -12° East
Voir autres Aéroports à Pennsylvania

Données opérationnelles

Special qualification required
Heure actuelle UTC:
Heure actuelle locale:
Météo à : KABE - Lehigh Valley Intl ( 10 km )
METAR: KABE 152151Z 33012KT 10SM 23/13 A2978 RMK AO2 SLP081 T02280133 $
TAF: KABE 151720Z 1518/1618 31011KT P6SM BKN050 FM152300 31004KT P6SM SCT050 FM161400 32009KT P6SM FEW050
Voir NOTAMs / SUP AIP / TFR affectant cet aéroport [VIEW]
Fréquences de communication: [VIEW]

Pistes:

Coordonnées de l'aéroport

Adresse: Bethlehem United States

Vue satellite de 8PA2